UPSVAC Airport Information Service

Minneapolis Saint Paul International Airport

ICAO: KMSP Country: United States
Latitude: 44.882 Longitude: -93.2217
Latest Arrival : SCX6050 (B) (KTPA-KMSP) Latest Departure : SCX3002(A) (KMSP-KCVG)


WX CaptureLIVE
Data provided by noaa.gov | Fetched at 23:18:29

METAR : KMSP 112253Z 08005KT 10SM FEW075 16/M05 A3033 RMK AO2 SLP274 T01611050

TAF : KMSP 112054Z 1121/1224 34005KT P6SM FEW070 FM120100 VRB03KT P6SM SKC FM120400 19005KT P6SM SKC


Runway Data for KMSP
Data provided by openaviationdata.com

Runway ID Mag Var Hdg Length Elevation Surface ILS Freq ILS Id ILS Slope
4 2 42° 10999 ft 841 ft Concrete 109.3 IAPL 3
12L 2 119° 8190 ft 841 ft Asphalt 110.7 IPJL 3
12R 2 119° 9988 ft 841 ft Asphalt 110.3 IHKZ 3
22 2 222° 10999 ft 841 ft Concrete 110.5 ISIJ 0
30L 2 299° 9988 ft 841 ft Asphalt 110.3 IMSP 3
30R 2 299° 8190 ft 841 ft Asphalt 110.7 IINN 3

Minneapolis Saint Paul International Airport, United States
Use only for reference purposes



Not for navigational purposes.